Hlavní strana
METAR-TAF:

METAR-TAF

Letiště :

Vadsø, Norsko

zeměpisná šířka: 70-04N, zeměpisná délka: 029-51E, výška: 3 m

Aktuální stav počasí

Zpráva byla vytvořena před 46 minutami, v 13:20 UTC
Východoseverovýchodní vítr 21 kt
Teplota -1°C
Vlhkost vzduchu 74%
Tlak 1007 hPa
Viditelnost 10 km a více
Oblačno až skoro zataženo ve výšce 2500 ft
přeháňky v blízkosti

METAR: ENVD 181320Z 07021KT 9999 VCSH BKN025 M01/M05 Q1007

Čas: 15:06 (14:06 UTC)

Předpověď počasí

Zpráva byla vytvořena před 3 hodinami a 6 minutami, v 11:00 UTC
Předpověď platná od 18 v 12 UTC do 18 v 21 UTC
Východoseverovýchodní vítr 25 kt
Viditelnost 10 km a více
Oblačno až skoro zataženo ve výšce 2000 ft
Pravděpodobnost 40%
od 18 v 15 UTC do 18 v 21 UTC
Viditelnost: 2000 m
ve výšce 800 ft
sníh

TAF: ENVD 181100Z 1812/1821 07025KT 9999 BKN020 PROB40 1815/1821 2000 SN VV008

Stav a předpovědi počasí z více než 4 000 letišť (zprávy METAR a TAF).

Červené a žluté tečky na mapě představují dostupné meteorologické stanice.

Když kurzor umístíte na tečku, zobrazí se název stanice.

Pak kliknutím zobrazíte stav a předpověď počasí.

Chcete-li změnit mapu, kliknutím na zelené tlačítko se znaménkem +mapu přiblížíte, kliknutím na zelené tlačítko se znaménkem – mapu oddálíte a kliknutím na zelené šipky přejdete na sousední mapy.


METAR-TAF: